createdAt,value
2023-03-17T00:03:42.029Z,100791.81
2023-03-17T00:08:46.277Z,100801.34
2023-03-17T00:13:49.770Z,100785.13
2023-03-17T00:18:55.582Z,100784.88
2023-03-17T00:23:59.483Z,100794.53
2023-03-17T00:29:02.214Z,100798.91
2023-03-17T00:34:07.817Z,100792.94
2023-03-17T00:39:17.939Z,100783.84
2023-03-17T00:44:20.631Z,100777.25
2023-03-17T00:49:26.621Z,100770.44
2023-03-17T00:54:29.887Z,100757.91
2023-03-17T00:59:40.136Z,100749.84
2023-03-17T01:04:59.564Z,100765.22
2023-03-17T01:10:14.115Z,100768.25
2023-03-17T01:15:17.711Z,100762.31
2023-03-17T01:20:23.660Z,100767.59
2023-03-17T01:25:27.552Z,100763.75
2023-03-17T01:30:32.761Z,100754.78
2023-03-17T01:35:38.253Z,100754.75
2023-03-17T01:40:44.850Z,100751.63
2023-03-17T01:46:17.171Z,100742.78
2023-03-17T01:51:27.559Z,100735.03
2023-03-17T01:56:30.651Z,100745.06
2023-03-17T02:01:38.739Z,100727.50
2023-03-17T02:06:56.928Z,100728.63
2023-03-17T02:12:02.787Z,100707.53
2023-03-17T02:17:06.034Z,100694.41
2023-03-17T02:22:10.429Z,100695.09
2023-03-17T02:27:16.407Z,100693.13
2023-03-17T02:32:20.451Z,100698.28
2023-03-17T02:37:24.579Z,100716.41
2023-03-17T02:42:28.573Z,100704.06
2023-03-17T02:47:34.720Z,100708.72
2023-03-17T02:52:38.775Z,100706.75
2023-03-17T02:57:41.899Z,100691.03
2023-03-17T03:02:44.696Z,100697.41
2023-03-17T03:07:48.813Z,100709.19
2023-03-17T03:12:51.803Z,100691.66
2023-03-17T03:17:54.516Z,100712.13
2023-03-17T03:22:58.848Z,100710.06
2023-03-17T03:28:01.605Z,100699.00
2023-03-17T03:33:04.740Z,100688.88
2023-03-17T03:38:09.588Z,100695.28
2023-03-17T03:43:22.840Z,100684.66
2023-03-17T03:48:26.574Z,100662.88
2023-03-17T03:53:30.901Z,100646.72
2023-03-17T03:58:33.640Z,100639.94
2023-03-17T04:03:37.146Z,100645.69
2023-03-17T04:08:41.260Z,100659.72
2023-03-17T04:13:43.976Z,100647.50
2023-03-17T04:18:46.751Z,100635.59
2023-03-17T04:23:50.984Z,100633.25
2023-03-17T04:28:54.640Z,100647.59
2023-03-17T04:33:57.412Z,100648.34
2023-03-17T04:39:01.954Z,100640.63
2023-03-17T04:44:04.864Z,100646.72
2023-03-17T04:49:07.600Z,100640.88
2023-03-17T04:54:12.189Z,100650.72
2023-03-17T04:59:16.212Z,100627.75
2023-03-17T05:04:31.350Z,100624.16
2023-03-17T05:09:36.244Z,100630.81
2023-03-17T05:14:39.151Z,100629.31
2023-03-17T05:19:42.473Z,100606.84
2023-03-17T05:24:47.530Z,100613.38
2023-03-17T05:29:50.392Z,100603.06
2023-03-17T05:34:54.213Z,100600.47
2023-03-17T05:39:58.304Z,100596.91
2023-03-17T05:45:01.082Z,100594.78
2023-03-17T05:50:04.901Z,100600.13
2023-03-17T05:55:10.126Z,100584.00
2023-03-17T06:00:17.103Z,100587.38
2023-03-17T06:05:19.883Z,100584.69
2023-03-17T06:10:24.022Z,100593.16
2023-03-17T06:15:27.083Z,100598.88
2023-03-17T06:20:30.066Z,100594.94
2023-03-17T06:25:34.958Z,100580.91
2023-03-17T06:30:40.622Z,100581.13
2023-03-17T06:35:43.758Z,100572.88
2023-03-17T06:40:47.922Z,100579.25
2023-03-17T06:45:51.510Z,100585.22
2023-03-17T06:50:54.298Z,100592.69
2023-03-17T06:55:58.628Z,100588.50
2023-03-17T07:01:01.367Z,100593.34
2023-03-17T07:06:04.319Z,100596.91
2023-03-17T07:11:09.396Z,100585.63
2023-03-17T07:16:15.143Z,100569.06
2023-03-17T07:21:18.117Z,100582.78
2023-03-17T07:26:22.404Z,100581.16
2023-03-17T07:31:25.530Z,100581.38
2023-03-17T07:36:28.286Z,100589.78
2023-03-17T07:41:32.361Z,100581.97
2023-03-17T07:46:35.113Z,100582.56
2023-03-17T07:51:38.682Z,100581.53
2023-03-17T07:56:43.405Z,100582.88
2023-03-17T08:01:46.164Z,100580.16
2023-03-17T08:06:49.379Z,100575.28
2023-03-17T08:11:53.700Z,100567.03
2023-03-17T08:16:57.274Z,100557.28
2023-03-17T08:22:00.085Z,100550.31
2023-03-17T08:27:04.983Z,100557.00
2023-03-17T08:32:08.661Z,100571.66
2023-03-17T08:37:12.208Z,100568.25
2023-03-17T08:42:17.042Z,100566.22
2023-03-17T08:47:20.222Z,100547.53
2023-03-17T08:52:23.338Z,100546.84
2023-03-17T08:57:28.085Z,100547.59
2023-03-17T09:02:30.862Z,100518.59
2023-03-17T09:07:34.159Z,100517.56
2023-03-17T09:12:38.788Z,100520.44
2023-03-17T09:17:43.725Z,100517.50
2023-03-17T09:22:47.748Z,100500.25
2023-03-17T09:27:52.054Z,100496.03
2023-03-17T09:32:54.896Z,100508.56
2023-03-17T09:37:57.949Z,100516.53
2023-03-17T09:43:16.297Z,100507.78
2023-03-17T09:48:33.610Z,100496.41
2023-03-17T09:53:39.115Z,100486.38
2023-03-17T09:58:50.701Z,100475.34
2023-03-17T10:03:53.959Z,100477.72
2023-03-17T10:09:01.612Z,100478.88
2023-03-17T10:14:13.752Z,100471.69
2023-03-17T10:19:25.696Z,100488.56
2023-03-17T10:24:32.685Z,100488.03
2023-03-17T10:29:37.041Z,100483.44
2023-03-17T10:34:41.477Z,100467.41
2023-03-17T10:39:47.196Z,100468.13
2023-03-17T10:44:55.240Z,100474.25
2023-03-17T10:49:59.480Z,100468.69
2023-03-17T10:55:05.562Z,100477.75
2023-03-17T11:00:19.885Z,100477.66
2023-03-17T11:05:25.135Z,100478.09
2023-03-17T11:10:30.177Z,100467.88
2023-03-17T11:15:37.813Z,100463.81
2023-03-17T11:20:46.924Z,100462.19
2023-03-17T11:26:00.493Z,100446.50
2023-03-17T11:31:13.092Z,100445.50
2023-03-17T11:36:29.465Z,100433.84
2023-03-17T11:41:54.117Z,100421.44
2023-03-17T11:47:04.117Z,100426.78
2023-03-17T11:52:16.523Z,100424.19
2023-03-17T11:57:24.706Z,100420.25
2023-03-17T12:02:38.153Z,100426.34
2023-03-17T12:07:47.224Z,100419.00
2023-03-17T12:12:56.435Z,100413.31
2023-03-17T12:18:05.586Z,100406.88
2023-03-17T12:23:19.848Z,100406.38
2023-03-17T12:28:25.824Z,100391.66
2023-03-17T12:33:34.959Z,100393.00
2023-03-17T12:38:41.074Z,100390.84
2023-03-17T12:43:55.778Z,100386.84
2023-03-17T12:49:31.045Z,100387.25
2023-03-17T12:54:37.561Z,100381.75
2023-03-17T12:59:43.836Z,100379.88
2023-03-17T13:04:57.752Z,100378.41
2023-03-17T13:10:38.193Z,100381.50
2023-03-17T13:15:59.356Z,100388.38
2023-03-17T13:21:13.743Z,100391.66
2023-03-17T13:26:20.954Z,100391.53
2023-03-17T13:31:34.678Z,100393.91
2023-03-17T13:36:59.083Z,100390.22
2023-03-17T13:42:37.312Z,100385.72
2023-03-17T13:47:43.334Z,100373.88
2023-03-17T13:52:49.686Z,100382.09
2023-03-17T13:58:16.493Z,100368.97
2023-03-17T14:03:29.048Z,100379.56
2023-03-17T14:08:34.686Z,100365.31
2023-03-17T14:13:46.268Z,100373.44
2023-03-17T14:18:54.874Z,100362.44
2023-03-17T14:23:59.189Z,100364.56
2023-03-17T14:29:04.723Z,100358.53
2023-03-17T14:34:14.678Z,100354.91
2023-03-17T14:39:23.040Z,100367.41
2023-03-17T14:44:25.888Z,100357.56
2023-03-17T14:49:31.769Z,100357.50
2023-03-17T14:54:36.557Z,100363.16
2023-03-17T14:59:41.449Z,100358.06
2023-03-17T15:04:53.995Z,100358.97
2023-03-17T15:10:01.526Z,100363.16
2023-03-17T15:15:10.014Z,100357.63
2023-03-17T15:20:18.153Z,100359.22
2023-03-17T15:25:28.513Z,100365.66
2023-03-17T15:30:44.327Z,100369.19
2023-03-17T15:35:51.137Z,100379.00
2023-03-17T15:40:54.518Z,100351.44
2023-03-17T15:46:01.304Z,100351.63
2023-03-17T15:51:07.152Z,100333.69
2023-03-17T15:56:19.047Z,100321.09
2023-03-17T16:01:22.173Z,100333.28
2023-03-17T16:06:26.418Z,100321.84
2023-03-17T16:11:31.788Z,100310.50
2023-03-17T16:16:38.081Z,100301.34
2023-03-17T16:21:42.384Z,100341.44
2023-03-17T16:26:45.386Z,100352.06
2023-03-17T16:31:49.921Z,100353.06
2023-03-17T16:36:54.535Z,100359.25
2023-03-17T16:41:57.484Z,100364.88
2023-03-17T16:47:00.478Z,100387.56
2023-03-17T16:52:04.977Z,100387.25
2023-03-17T16:57:08.146Z,100392.22
2023-03-17T17:02:17.130Z,100400.81
2023-03-17T17:07:21.204Z,100405.97
2023-03-17T17:12:23.965Z,100405.47
2023-03-17T17:17:28.159Z,100412.09
2023-03-17T17:22:32.326Z,100369.53
2023-03-17T17:27:35.029Z,100311.91
2023-03-17T17:32:38.020Z,100314.44
2023-03-17T17:37:42.206Z,100387.84
2023-03-17T17:42:46.348Z,100377.47
2023-03-17T17:47:49.954Z,100384.69
2023-03-17T17:52:54.942Z,100402.19
2023-03-17T17:57:57.769Z,100403.88
2023-03-17T18:03:00.488Z,100410.25
2023-03-17T18:08:05.120Z,100411.97
2023-03-17T18:13:07.954Z,100409.41
2023-03-17T18:18:10.853Z,100415.44
2023-03-17T18:23:15.992Z,100416.94
2023-03-17T18:28:18.785Z,100413.78
2023-03-17T18:33:21.968Z,100418.97
2023-03-17T18:38:26.332Z,100418.56
2023-03-17T18:43:29.219Z,100410.66
2023-03-17T18:48:32.050Z,100406.81
2023-03-17T18:53:36.673Z,100409.63
2023-03-17T18:58:39.473Z,100421.56
2023-03-17T19:03:42.253Z,100408.13
2023-03-17T19:08:46.764Z,100398.72
2023-03-17T19:13:50.098Z,100388.19
2023-03-17T19:18:52.876Z,100386.84
2023-03-17T19:23:59.891Z,100370.00
2023-03-17T19:29:02.626Z,100376.09
2023-03-17T19:34:05.406Z,100347.94
2023-03-17T19:39:11.746Z,100349.81
2023-03-17T19:44:14.462Z,100354.59
2023-03-17T19:49:17.982Z,100350.16
2023-03-17T19:54:23.409Z,100357.59
2023-03-17T19:59:26.365Z,100360.75
2023-03-17T20:04:29.208Z,100348.78
2023-03-17T20:09:33.368Z,100343.47
2023-03-17T20:14:36.075Z,100349.31
2023-03-17T20:19:39.462Z,100340.81
2023-03-17T20:24:43.634Z,100345.31
2023-03-17T20:29:48.475Z,100354.44
2023-03-17T20:34:51.283Z,100360.06
2023-03-17T20:39:57.325Z,100360.06
2023-03-17T20:45:00.131Z,100363.84
2023-03-17T20:50:02.992Z,100367.97
2023-03-17T20:55:08.437Z,100347.34
2023-03-17T21:00:16.209Z,100341.72
2023-03-17T21:05:21.145Z,100343.53
2023-03-17T21:10:25.870Z,100348.59
2023-03-17T21:15:29.467Z,100356.88
2023-03-17T21:20:32.931Z,100347.81
2023-03-17T21:25:38.053Z,100353.59
2023-03-17T21:30:43.563Z,100361.53
2023-03-17T21:35:47.193Z,100354.91
2023-03-17T21:40:51.608Z,100350.78
2023-03-17T21:45:54.497Z,100334.31
2023-03-17T21:50:57.215Z,100326.97
2023-03-17T21:56:01.329Z,100337.31
2023-03-17T22:01:04.160Z,100342.59
2023-03-17T22:06:07.865Z,100354.81
2023-03-17T22:11:14.440Z,100347.31
2023-03-17T22:16:18.236Z,100349.31
2023-03-17T22:21:21.623Z,100342.94
2023-03-17T22:26:25.773Z,100347.38
2023-03-17T22:31:31.610Z,100338.69
2023-03-17T22:36:34.497Z,100351.03
2023-03-17T22:41:39.752Z,100344.06
2023-03-17T22:46:42.495Z,100336.38
2023-03-17T22:51:46.595Z,100330.78
2023-03-17T22:56:50.796Z,100333.06
2023-03-17T23:01:53.557Z,100341.69
2023-03-17T23:06:56.342Z,100354.72
2023-03-17T23:12:00.630Z,100350.31
2023-03-17T23:17:03.545Z,100356.41
2023-03-17T23:22:06.404Z,100357.84
2023-03-17T23:27:10.648Z,100345.53
2023-03-17T23:32:13.829Z,100346.59
2023-03-17T23:37:16.840Z,100342.50
2023-03-17T23:42:21.432Z,100341.41
2023-03-17T23:47:24.576Z,100329.94
2023-03-17T23:52:27.282Z,100335.31
2023-03-17T23:57:31.586Z,100334.00
